Time;durP1;ratioP1;P1;durP2;ratioP2;P2;SDS_P1;SDS_P2;PMS_P1;PMS_P2;Temp;Humidity;BMP_temperature;BMP_pressure;BME280_temperature;BME280_humidity;BME280_pressure;Samples;Min_cycle;Max_cycle;Signal;HPM_P1;HPM_P2
2022/08/29 00:01:27;;;;;;;9.65;4.62;;;;;;;;;;1742279;81;21032;-71
2022/08/29 00:03:54;;;;;;;7.53;4.28;;;;;;;;;;1744059;81;21096;-71
2022/08/29 00:06:22;;;;;;;9.88;4.90;;;;;;;;;;1745316;81;21087;-71
2022/08/29 00:08:48;;;;;;;9.18;4.22;;;;;;;;;;1753535;81;21028;-71
2022/08/29 00:11:15;;;;;;;12.00;5.58;;;;;;;;;;1761920;81;21570;-71
2022/08/29 00:13:41;;;;;;;10.43;5.70;;;;;;;;;;1754618;81;21515;-71
2022/08/29 00:16:08;;;;;;;10.78;5.90;;;;;;;;;;1758707;81;21088;-71
2022/08/29 00:18:34;;;;;;;7.75;4.62;;;;;;;;;;1754718;81;21060;-71
2022/08/29 00:21:01;;;;;;;11.43;4.90;;;;;;;;;;1759463;81;21033;-71
2022/08/29 00:23:27;;;;;;;10.90;5.85;;;;;;;;;;1753605;81;21016;-71
2022/08/29 00:25:55;;;;;;;7.95;4.83;;;;;;;;;;1761817;81;21032;-70
2022/08/29 00:28:21;;;;;;;11.12;4.58;;;;;;;;;;1747741;81;21071;-71
2022/08/29 00:30:48;;;;;;;7.08;4.45;;;;;;;;;;1761592;81;21122;-71
2022/08/29 00:33:14;;;;;;;10.85;5.03;;;;;;;;;;1759886;80;21087;-70
2022/08/29 00:35:41;;;;;;;7.97;4.70;;;;;;;;;;1746084;81;21045;-71
2022/08/29 00:38:08;;;;;;;10.30;5.15;;;;;;;;;;1748760;81;21056;-70
2022/08/29 00:40:36;;;;;;;7.47;5.22;;;;;;;;;;1755690;81;21064;-70
2022/08/29 00:43:03;;;;;;;8.03;4.50;;;;;;;;;;1758437;81;21044;-70
2022/08/29 00:45:29;;;;;;;8.90;4.50;;;;;;;;;;1751017;81;21017;-70
2022/08/29 00:47:57;;;;;;;8.40;4.20;;;;;;;;;;1720404;82;21094;-70
2022/08/29 00:50:25;;;;;;;7.15;4.22;;;;;;;;;;1752745;81;21533;-70
2022/08/29 00:52:51;;;;;;;8.83;3.87;;;;;;;;;;1752620;81;21088;-70
2022/08/29 00:55:20;;;;;;;8.98;3.95;;;;;;;;;;1745905;81;21020;-70
2022/08/29 00:57:47;;;;;;;12.33;4.28;;;;;;;;;;1751208;81;20957;-71
2022/08/29 01:00:13;;;;;;;7.22;4.00;;;;;;;;;;1749286;81;21483;-70
2022/08/29 01:05:22;;;;;;;7.00;3.60;;;;;;;;;;1694597;83;73097;-68
2022/08/29 01:07:50;;;;;;;7.25;3.98;;;;;;;;;;1780336;80;21044;-69
2022/08/29 01:13:02;;;;;;;7.42;3.87;;;;;;;;;;1776629;79;21067;-70
2022/08/29 01:15:29;;;;;;;6.17;4.17;;;;;;;;;;1738773;81;21019;-68
2022/08/29 01:17:55;;;;;;;8.43;4.50;;;;;;;;;;1740728;81;21027;-70
2022/08/29 01:20:26;;;;;;;5.83;4.10;;;;;;;;;;1740533;81;21608;-69
2022/08/29 01:22:57;;;;;;;6.83;3.98;;;;;;;;;;1742281;81;21024;-69
2022/08/29 01:25:24;;;;;;;7.28;4.08;;;;;;;;;;1745495;81;21088;-69
2022/08/29 01:28:01;;;;;;;5.30;3.75;;;;;;;;;;1740519;81;21060;-70
2022/08/29 01:30:27;;;;;;;10.45;4.05;;;;;;;;;;1743292;81;21570;-68
2022/08/29 01:32:56;;;;;;;9.80;4.40;;;;;;;;;;1741041;81;21072;-69
2022/08/29 01:35:23;;;;;;;6.60;3.60;;;;;;;;;;1742251;81;21029;-69
2022/08/29 01:37:49;;;;;;;8.68;4.30;;;;;;;;;;1742579;81;20954;-68
2022/08/29 01:40:15;;;;;;;8.90;3.55;;;;;;;;;;1741317;81;21059;-69
2022/08/29 01:42:42;;;;;;;7.60;4.58;;;;;;;;;;1739171;81;21067;-69
2022/08/29 01:45:08;;;;;;;8.48;4.22;;;;;;;;;;1749989;82;21067;-69
2022/08/29 01:47:34;;;;;;;7.90;4.05;;;;;;;;;;1745170;81;21056;-69
2022/08/29 01:50:01;;;;;;;7.03;4.37;;;;;;;;;;1741586;82;21168;-69
2022/08/29 01:52:28;;;;;;;9.35;4.35;;;;;;;;;;1736601;81;21524;-69
2022/08/29 01:54:54;;;;;;;8.70;4.25;;;;;;;;;;1742749;81;21050;-69
2022/08/29 01:57:20;;;;;;;11.22;4.03;;;;;;;;;;1735576;81;21097;-69
2022/08/29 01:59:47;;;;;;;9.03;4.35;;;;;;;;;;1737538;81;21067;-69
2022/08/29 02:02:18;;;;;;;10.08;4.10;;;;;;;;;;1735221;81;21549;-70
2022/08/29 02:04:45;;;;;;;7.12;4.15;;;;;;;;;;1747886;81;21587;-68
2022/08/29 02:07:12;;;;;;;11.05;4.62;;;;;;;;;;1766584;80;21068;-67
2022/08/29 02:09:40;;;;;;;9.60;4.67;;;;;;;;;;1755639;81;21143;-68
2022/08/29 02:12:07;;;;;;;8.80;4.10;;;;;;;;;;1765406;81;21058;-69
2022/08/29 02:14:33;;;;;;;9.30;4.55;;;;;;;;;;1761319;81;21095;-68
2022/08/29 02:17:01;;;;;;;9.95;4.95;;;;;;;;;;1741698;82;22215;-68
2022/08/29 02:19:27;;;;;;;13.00;4.80;;;;;;;;;;1746394;81;21099;-68
2022/08/29 02:21:53;;;;;;;9.48;4.25;;;;;;;;;;1758734;81;21032;-68
2022/08/29 02:24:19;;;;;;;10.58;4.20;;;;;;;;;;1762292;81;21567;-68
2022/08/29 02:26:45;;;;;;;8.25;4.53;;;;;;;;;;1770648;80;21075;-68
2022/08/29 02:29:12;;;;;;;8.60;4.53;;;;;;;;;;1775855;79;21118;-68
2022/08/29 02:31:39;;;;;;;7.70;5.15;;;;;;;;;;1790283;79;21012;-68
2022/08/29 02:34:08;;;;;;;9.95;5.50;;;;;;;;;;1784639;80;21048;-68
2022/08/29 02:36:36;;;;;;;9.68;4.60;;;;;;;;;;1793821;79;21124;-68
2022/08/29 02:39:03;;;;;;;9.95;4.70;;;;;;;;;;1783010;79;21610;-68
2022/08/29 02:41:30;;;;;;;8.53;4.62;;;;;;;;;;1783931;80;21593;-67
2022/08/29 02:43:57;;;;;;;10.43;5.22;;;;;;;;;;1770720;79;21024;-69
2022/08/29 02:48:16;;;;;;;11.55;5.42;;;;;;;;;;1809089;78;23095;-69
2022/08/29 02:50:47;;;;;;;8.23;5.08;;;;;;;;;;1778751;80;21017;-69
2022/08/29 02:53:14;;;;;;;9.75;5.15;;;;;;;;;;1782939;79;21079;-69
2022/08/29 02:55:41;;;;;;;9.50;5.00;;;;;;;;;;1773018;79;21080;-68
2022/08/29 02:58:07;;;;;;;9.18;5.05;;;;;;;;;;1764818;79;21012;-67
2022/08/29 03:00:34;;;;;;;7.28;5.00;;;;;;;;;;1786143;79;21050;-68
2022/08/29 03:03:01;;;;;;;7.28;5.12;;;;;;;;;;1769043;79;21664;-68
2022/08/29 03:05:28;;;;;;;9.48;5.00;;;;;;;;;;1745347;80;21060;-69
2022/08/29 03:07:56;;;;;;;8.28;5.00;;;;;;;;;;1726122;80;21087;-68
2022/08/29 03:10:23;;;;;;;10.38;5.00;;;;;;;;;;1745668;80;21055;-69
2022/08/29 03:12:49;;;;;;;12.20;5.80;;;;;;;;;;1755222;80;21032;-69
2022/08/29 03:15:16;;;;;;;13.62;5.40;;;;;;;;;;1756145;80;21104;-69
2022/08/29 03:17:43;;;;;;;7.95;4.67;;;;;;;;;;1750731;80;21535;-68
2022/08/29 03:20:10;;;;;;;8.60;4.58;;;;;;;;;;1751032;80;21084;-68
2022/08/29 03:22:37;;;;;;;7.90;4.80;;;;;;;;;;1752551;80;21547;-68
2022/08/29 03:25:04;;;;;;;17.57;5.50;;;;;;;;;;1753470;80;21102;-68
2022/08/29 03:27:30;;;;;;;12.37;5.33;;;;;;;;;;1753873;80;21536;-68
2022/08/29 03:29:56;;;;;;;7.47;4.53;;;;;;;;;;1748508;80;21926;-69
2022/08/29 03:32:22;;;;;;;11.53;5.05;;;;;;;;;;1745804;80;21322;-68
2022/08/29 03:34:49;;;;;;;9.83;4.50;;;;;;;;;;1747998;80;21082;-69
2022/08/29 03:37:15;;;;;;;9.18;5.00;;;;;;;;;;1750078;80;21559;-68
2022/08/29 03:39:41;;;;;;;10.70;4.80;;;;;;;;;;1755082;80;21076;-68
2022/08/29 03:42:07;;;;;;;7.83;4.47;;;;;;;;;;1753224;81;21049;-68
2022/08/29 03:44:34;;;;;;;7.53;4.65;;;;;;;;;;1755704;80;21604;-68
2022/08/29 03:47:00;;;;;;;11.80;5.37;;;;;;;;;;1757884;81;21079;-68
2022/08/29 03:49:27;;;;;;;13.10;4.83;;;;;;;;;;1736466;81;21088;-68
2022/08/29 03:51:52;;;;;;;11.63;4.92;;;;;;;;;;1732014;81;21084;-69
2022/08/29 03:54:19;;;;;;;8.55;4.83;;;;;;;;;;1739797;81;21630;-68
2022/08/29 03:56:45;;;;;;;11.00;5.35;;;;;;;;;;1746144;82;21069;-69
2022/08/29 03:59:11;;;;;;;10.85;4.92;;;;;;;;;;1728678;81;21025;-69
2022/08/29 04:01:37;;;;;;;11.10;5.03;;;;;;;;;;1736948;81;21067;-68
2022/08/29 04:04:04;;;;;;;10.15;5.10;;;;;;;;;;1733815;80;21571;-69
2022/08/29 04:06:31;;;;;;;6.92;4.80;;;;;;;;;;1726844;82;21056;-69
2022/08/29 04:08:57;;;;;;;10.70;4.97;;;;;;;;;;1735860;81;21017;-69
2022/08/29 04:11:24;;;;;;;16.70;4.58;;;;;;;;;;1736255;81;20981;-69
2022/08/29 04:13:51;;;;;;;7.47;4.33;;;;;;;;;;1740540;81;21104;-69
2022/08/29 04:16:19;;;;;;;8.98;4.30;;;;;;;;;;1750902;82;21024;-69
2022/08/29 04:18:45;;;;;;;10.78;4.75;;;;;;;;;;1743292;82;21039;-69
2022/08/29 04:21:11;;;;;;;8.90;4.35;;;;;;;;;;1733998;82;21520;-68
2022/08/29 04:23:38;;;;;;;7.62;4.15;;;;;;;;;;1737642;82;21063;-68
2022/08/29 04:26:05;;;;;;;7.42;4.40;;;;;;;;;;1733496;82;21049;-68
2022/08/29 04:28:31;;;;;;;9.05;5.10;;;;;;;;;;1734394;81;21002;-68
2022/08/29 04:30:57;;;;;;;10.78;4.70;;;;;;;;;;1742378;81;21095;-68
2022/08/29 04:33:24;;;;;;;10.10;4.60;;;;;;;;;;1740228;81;21084;-69
2022/08/29 04:35:50;;;;;;;9.15;4.85;;;;;;;;;;1735398;81;21069;-70
2022/08/29 04:38:16;;;;;;;11.95;5.00;;;;;;;;;;1738766;81;21023;-69
2022/08/29 04:40:43;;;;;;;8.28;4.40;;;;;;;;;;1733596;81;21091;-69
2022/08/29 04:43:10;;;;;;;7.85;4.60;;;;;;;;;;1735720;81;21088;-69
2022/08/29 04:45:39;;;;;;;12.50;5.03;;;;;;;;;;1738850;81;21064;-68
2022/08/29 04:48:04;;;;;;;9.75;4.17;;;;;;;;;;1738211;81;21580;-69
2022/08/29 04:50:31;;;;;;;12.30;5.30;;;;;;;;;;1735810;81;21067;-69
2022/08/29 04:52:57;;;;;;;7.33;4.70;;;;;;;;;;1736609;81;21076;-69
2022/08/29 04:55:24;;;;;;;8.13;4.00;;;;;;;;;;1736123;81;21001;-69
2022/08/29 04:57:51;;;;;;;10.28;4.97;;;;;;;;;;1743648;81;21000;-69
2022/08/29 05:00:18;;;;;;;10.13;5.00;;;;;;;;;;1745507;81;21291;-69
2022/08/29 05:02:45;;;;;;;8.90;4.53;;;;;;;;;;1742330;81;21606;-70
2022/08/29 05:05:12;;;;;;;13.68;5.65;;;;;;;;;;1744410;82;21003;-69
2022/08/29 05:07:38;;;;;;;13.65;6.03;;;;;;;;;;1748929;81;21001;-70
2022/08/29 05:10:06;;;;;;;13.32;6.37;;;;;;;;;;1742208;81;21059;-69
2022/08/29 05:12:33;;;;;;;10.30;6.00;;;;;;;;;;1743160;81;21035;-69
2022/08/29 05:14:59;;;;;;;10.38;6.03;;;;;;;;;;1741422;82;21109;-69
2022/08/29 05:17:25;;;;;;;8.85;5.70;;;;;;;;;;1738370;81;21507;-70
2022/08/29 05:19:51;;;;;;;15.20;6.12;;;;;;;;;;1706177;81;21040;-68
2022/08/29 05:22:18;;;;;;;12.60;6.10;;;;;;;;;;1744558;81;21028;-69
2022/08/29 05:24:45;;;;;;;16.00;6.58;;;;;;;;;;1743546;81;21547;-69
2022/08/29 05:27:13;;;;;;;12.90;6.50;;;;;;;;;;1741332;81;21033;-69
2022/08/29 05:29:44;;;;;;;13.65;6.75;;;;;;;;;;1741124;81;21031;-69
2022/08/29 05:32:10;;;;;;;14.65;7.12;;;;;;;;;;1740858;81;21073;-69
2022/08/29 05:34:37;;;;;;;12.98;7.42;;;;;;;;;;1749799;81;21061;-69
2022/08/29 05:37:07;;;;;;;12.43;7.03;;;;;;;;;;1742593;81;21105;-69
2022/08/29 05:39:33;;;;;;;15.03;7.53;;;;;;;;;;1743201;81;21052;-69
2022/08/29 05:41:59;;;;;;;12.73;7.72;;;;;;;;;;1739046;81;21093;-69
2022/08/29 05:44:26;;;;;;;15.60;7.92;;;;;;;;;;1741185;81;21609;-69
2022/08/29 05:46:52;;;;;;;16.60;8.30;;;;;;;;;;1725348;81;21096;-69
2022/08/29 05:49:19;;;;;;;12.20;8.38;;;;;;;;;;1707891;83;21094;-70
2022/08/29 05:51:44;;;;;;;12.15;7.42;;;;;;;;;;1694514;84;21049;-69
2022/08/29 05:54:11;;;;;;;11.22;7.90;;;;;;;;;;1691370;83;21028;-69
2022/08/29 05:56:37;;;;;;;14.90;8.40;;;;;;;;;;1696485;84;21064;-69
2022/08/29 05:59:03;;;;;;;12.70;8.05;;;;;;;;;;1712708;84;21108;-69
2022/08/29 06:01:31;;;;;;;10.82;8.38;;;;;;;;;;1710368;82;21492;-70
2022/08/29 06:03:57;;;;;;;14.53;8.50;;;;;;;;;;1699893;83;21055;-70
2022/08/29 06:06:24;;;;;;;12.18;8.98;;;;;;;;;;1699935;84;21551;-68
2022/08/29 06:08:51;;;;;;;12.80;8.20;;;;;;;;;;1707522;84;21108;-69
2022/08/29 06:11:18;;;;;;;13.08;8.63;;;;;;;;;;1704073;83;21056;-71
2022/08/29 06:13:45;;;;;;;13.32;8.80;;;;;;;;;;1695780;83;21040;-70
2022/08/29 06:16:13;;;;;;;14.58;9.05;;;;;;;;;;1696225;84;21080;-69
2022/08/29 06:18:39;;;;;;;12.15;8.95;;;;;;;;;;1693301;84;21073;-68
2022/08/29 06:21:06;;;;;;;14.95;8.08;;;;;;;;;;1698367;83;21603;-69
2022/08/29 06:23:33;;;;;;;16.32;9.20;;;;;;;;;;1704087;82;21666;-69
2022/08/29 06:25:59;;;;;;;12.95;9.90;;;;;;;;;;1705099;82;21050;-70
2022/08/29 06:28:26;;;;;;;20.48;9.68;;;;;;;;;;1704803;82;20965;-67
2022/08/29 06:30:52;;;;;;;15.00;8.83;;;;;;;;;;1703988;82;21210;-69
2022/08/29 06:33:18;;;;;;;22.62;9.58;;;;;;;;;;1702862;82;22116;-68
2022/08/29 06:35:44;;;;;;;14.98;9.03;;;;;;;;;;1707561;82;21056;-70
2022/08/29 06:38:10;;;;;;;13.83;9.10;;;;;;;;;;1702899;83;21009;-68
2022/08/29 06:40:36;;;;;;;14.05;8.98;;;;;;;;;;1705607;82;21546;-69
2022/08/29 06:43:02;;;;;;;12.70;9.38;;;;;;;;;;1708841;82;21481;-69
2022/08/29 06:45:28;;;;;;;15.20;9.63;;;;;;;;;;1701443;82;21505;-69
2022/08/29 06:47:54;;;;;;;19.57;9.50;;;;;;;;;;1699204;82;21005;-70
2022/08/29 06:50:20;;;;;;;13.93;9.00;;;;;;;;;;1699946;83;21020;-70
2022/08/29 06:52:46;;;;;;;18.65;9.30;;;;;;;;;;1694371;83;20969;-69
2022/08/29 06:55:12;;;;;;;13.68;9.43;;;;;;;;;;1702477;83;20996;-70
2022/08/29 06:57:43;;;;;;;12.88;9.00;;;;;;;;;;1708878;83;20984;-68
2022/08/29 07:00:09;;;;;;;18.00;9.05;;;;;;;;;;1703623;83;21040;-69
2022/08/29 07:02:35;;;;;;;16.60;10.72;;;;;;;;;;1689902;83;21013;-67
2022/08/29 07:05:01;;;;;;;15.55;10.18;;;;;;;;;;1714838;83;21033;-68
2022/08/29 07:07:28;;;;;;;13.55;9.65;;;;;;;;;;1690003;83;20985;-66
2022/08/29 07:09:53;;;;;;;16.97;10.28;;;;;;;;;;1697090;83;21001;-67
2022/08/29 07:12:20;;;;;;;14.47;9.88;;;;;;;;;;1697287;83;21036;-67
2022/08/29 07:14:46;;;;;;;16.05;9.98;;;;;;;;;;1698902;83;21532;-67
2022/08/29 07:17:12;;;;;;;16.40;9.15;;;;;;;;;;1696473;83;21021;-67
2022/08/29 07:19:38;;;;;;;17.02;9.65;;;;;;;;;;1691538;82;20980;-68
2022/08/29 07:22:06;;;;;;;15.03;9.80;;;;;;;;;;1685176;83;21037;-68
2022/08/29 07:24:33;;;;;;;15.18;9.00;;;;;;;;;;1684411;83;21065;-68
2022/08/29 07:26:59;;;;;;;15.60;9.93;;;;;;;;;;1689188;83;21027;-67
2022/08/29 07:29:25;;;;;;;13.83;8.98;;;;;;;;;;1684310;83;21005;-68
2022/08/29 07:31:52;;;;;;;14.35;9.03;;;;;;;;;;1704463;83;21503;-66
2022/08/29 07:34:18;;;;;;;13.00;9.33;;;;;;;;;;1690820;83;21036;-67
2022/08/29 07:36:45;;;;;;;16.17;9.68;;;;;;;;;;1691415;84;21044;-66
2022/08/29 07:39:12;;;;;;;20.05;10.05;;;;;;;;;;1693096;84;21052;-66
2022/08/29 07:41:39;;;;;;;15.35;9.90;;;;;;;;;;1687467;84;21628;-66
2022/08/29 07:44:05;;;;;;;15.32;10.18;;;;;;;;;;1689752;84;21045;-67
2022/08/29 07:46:31;;;;;;;13.10;9.55;;;;;;;;;;1693056;84;21044;-68
2022/08/29 07:48:57;;;;;;;20.55;10.20;;;;;;;;;;1732162;81;21088;-67
2022/08/29 07:51:24;;;;;;;13.75;9.83;;;;;;;;;;1738662;81;21040;-68
2022/08/29 07:53:50;;;;;;;15.40;9.93;;;;;;;;;;1731403;82;21012;-67
2022/08/29 07:56:24;;;;;;;16.57;9.65;;;;;;;;;;1732028;82;21508;-67
2022/08/29 07:58:50;;;;;;;11.03;8.88;;;;;;;;;;1737219;82;21045;-67
2022/08/29 08:01:16;;;;;;;15.60;9.65;;;;;;;;;;1734262;81;21103;-71
2022/08/29 08:03:43;;;;;;;15.40;9.85;;;;;;;;;;1728864;82;21488;-69
2022/08/29 08:06:10;;;;;;;19.10;10.10;;;;;;;;;;1738191;82;21572;-71
2022/08/29 08:08:38;;;;;;;16.45;10.60;;;;;;;;;;1727574;81;21154;-69
2022/08/29 08:11:05;;;;;;;14.85;9.40;;;;;;;;;;1738506;81;21564;-69
2022/08/29 08:13:32;;;;;;;15.63;9.88;;;;;;;;;;1739109;81;21036;-69
2022/08/29 08:15:58;;;;;;;14.95;9.28;;;;;;;;;;1733782;81;21512;-69
2022/08/29 08:18:24;;;;;;;12.85;8.90;;;;;;;;;;1725351;81;21020;-70
2022/08/29 08:20:51;;;;;;;14.00;9.43;;;;;;;;;;1737588;82;21091;-68
2022/08/29 08:23:17;;;;;;;16.62;10.43;;;;;;;;;;1732547;81;21008;-67
2022/08/29 08:25:45;;;;;;;12.37;9.30;;;;;;;;;;1738393;82;21072;-68
2022/08/29 08:28:11;;;;;;;17.57;10.85;;;;;;;;;;1735188;81;21044;-67
2022/08/29 08:30:38;;;;;;;12.60;9.55;;;;;;;;;;1732114;81;21064;-67
2022/08/29 08:33:04;;;;;;;17.48;9.73;;;;;;;;;;1727217;81;21091;-66
2022/08/29 08:35:32;;;;;;;15.90;9.75;;;;;;;;;;1744290;81;21028;-66
2022/08/29 08:37:58;;;;;;;16.85;8.53;;;;;;;;;;1725786;82;21009;-68
2022/08/29 08:40:29;;;;;;;19.82;10.23;;;;;;;;;;1731157;82;21069;-68
2022/08/29 08:42:59;;;;;;;17.65;9.95;;;;;;;;;;1736020;81;21032;-67
2022/08/29 08:45:25;;;;;;;13.72;8.95;;;;;;;;;;1736227;81;21012;-69
2022/08/29 08:47:55;;;;;;;10.40;8.80;;;;;;;;;;1735925;81;21087;-71
2022/08/29 08:50:36;;;;;;;13.18;9.10;;;;;;;;;;1738081;81;21483;-69
2022/08/29 08:53:04;;;;;;;12.25;9.00;;;;;;;;;;1738592;81;21063;-68
2022/08/29 08:55:36;;;;;;;13.18;8.40;;;;;;;;;;1724024;81;22200;-69
2022/08/29 08:58:22;;;;;;;14.47;8.20;;;;;;;;;;1737035;81;21035;-68
2022/08/29 09:00:57;;;;;;;13.75;8.53;;;;;;;;;;1723146;81;21178;-68
2022/08/29 09:03:25;;;;;;;10.38;7.95;;;;;;;;;;1738421;81;22380;-67
2022/08/29 09:05:56;;;;;;;12.70;8.90;;;;;;;;;;1730159;82;21571;-67
2022/08/29 09:08:27;;;;;;;13.98;8.70;;;;;;;;;;1729630;81;20994;-67
2022/08/29 09:10:55;;;;;;;12.73;8.53;;;;;;;;;;1728180;82;21571;-66
2022/08/29 09:13:34;;;;;;;12.60;8.43;;;;;;;;;;1738837;81;21026;-71
2022/08/29 09:16:03;;;;;;;12.30;8.38;;;;;;;;;;1731033;82;21076;-71
2022/08/29 09:18:37;;;;;;;9.75;7.92;;;;;;;;;;1741485;82;21484;-71
2022/08/29 09:21:03;;;;;;;10.53;7.90;;;;;;;;;;1743751;81;21199;-69
2022/08/29 09:23:35;;;;;;;11.05;8.03;;;;;;;;;;1709611;82;21065;-70
2022/08/29 09:26:01;;;;;;;12.20;7.60;;;;;;;;;;1733287;82;21045;-70
2022/08/29 09:28:27;;;;;;;11.60;7.95;;;;;;;;;;1734874;81;22286;-69
2022/08/29 09:31:12;;;;;;;11.03;7.42;;;;;;;;;;1737080;81;21369;-67
2022/08/29 09:33:41;;;;;;;13.30;7.67;;;;;;;;;;1735954;82;21047;-68
2022/08/29 09:36:09;;;;;;;11.40;7.50;;;;;;;;;;1737572;82;21025;-70
2022/08/29 09:38:35;;;;;;;13.45;7.08;;;;;;;;;;1735206;81;21017;-69
2022/08/29 09:41:03;;;;;;;9.95;7.42;;;;;;;;;;1737197;82;21035;-70
2022/08/29 09:43:31;;;;;;;10.32;7.45;;;;;;;;;;1735429;81;21072;-69
2022/08/29 09:46:02;;;;;;;13.75;7.45;;;;;;;;;;1737630;81;21091;-71
2022/08/29 09:48:30;;;;;;;14.10;7.65;;;;;;;;;;1736609;81;21097;-71
2022/08/29 09:50:58;;;;;;;11.33;7.60;;;;;;;;;;1731804;82;21068;-69
2022/08/29 09:53:24;;;;;;;10.95;7.65;;;;;;;;;;1728618;81;21167;-69
2022/08/29 09:55:50;;;;;;;14.03;8.48;;;;;;;;;;1728790;82;21020;-69
2022/08/29 09:58:18;;;;;;;11.63;7.78;;;;;;;;;;1728545;82;21064;-70
2022/08/29 10:01:01;;;;;;;9.60;6.87;;;;;;;;;;1728844;81;21122;-71
2022/08/29 10:03:29;;;;;;;12.13;7.67;;;;;;;;;;1706191;82;21549;-71
2022/08/29 10:06:06;;;;;;;12.07;7.12;;;;;;;;;;1728814;81;21038;-67
2022/08/29 10:08:34;;;;;;;20.70;7.78;;;;;;;;;;1730647;81;21289;-68
2022/08/29 10:11:06;;;;;;;10.43;7.50;;;;;;;;;;1734757;82;21041;-67
2022/08/29 10:13:37;;;;;;;10.00;6.80;;;;;;;;;;1722496;82;21036;-68
2022/08/29 10:16:14;;;;;;;11.40;7.53;;;;;;;;;;1689285;81;21518;-78
2022/08/29 10:19:00;;;;;;;12.33;6.83;;;;;;;;;;1732021;82;21021;-79
2022/08/29 10:21:37;;;;;;;10.60;7.25;;;;;;;;;;1730833;82;21571;-79
2022/08/29 10:24:08;;;;;;;15.00;6.83;;;;;;;;;;1735379;81;21028;-79
2022/08/29 10:26:45;;;;;;;11.55;7.30;;;;;;;;;;1735928;81;21021;-79
2022/08/29 10:29:28;;;;;;;9.08;7.58;;;;;;;;;;1729272;81;21031;-79
2022/08/29 10:31:56;;;;;;;8.48;6.62;;;;;;;;;;1689890;82;21079;-79
2022/08/29 10:34:33;;;;;;;11.30;6.65;;;;;;;;;;1734422;81;21019;-70
2022/08/29 10:37:00;;;;;;;14.65;7.55;;;;;;;;;;1731441;81;21573;-66
2022/08/29 10:39:28;;;;;;;8.70;6.22;;;;;;;;;;1733181;82;21049;-66
2022/08/29 10:41:59;;;;;;;8.60;7.05;;;;;;;;;;1731700;82;21533;-67
2022/08/29 10:44:27;;;;;;;12.05;6.70;;;;;;;;;;1729296;82;21024;-66
2022/08/29 10:46:55;;;;;;;11.08;7.17;;;;;;;;;;1728879;81;21058;-66
2022/08/29 10:49:29;;;;;;;10.48;6.90;;;;;;;;;;1726761;82;21481;-65
2022/08/29 10:52:00;;;;;;;8.95;6.80;;;;;;;;;;1731672;81;21084;-67
2022/08/29 10:54:34;;;;;;;13.28;7.30;;;;;;;;;;1726026;82;21044;-67
2022/08/29 10:57:01;;;;;;;10.43;6.58;;;;;;;;;;1734686;81;22299;-68
2022/08/29 10:59:33;;;;;;;10.45;7.05;;;;;;;;;;1729085;81;21105;-67
2022/08/29 11:02:01;;;;;;;11.70;6.70;;;;;;;;;;1726550;81;21068;-68
2022/08/29 11:04:30;;;;;;;12.43;7.03;;;;;;;;;;1736332;81;21045;-69
2022/08/29 11:06:58;;;;;;;10.40;6.95;;;;;;;;;;1730347;81;21546;-69
2022/08/29 11:09:29;;;;;;;11.85;6.62;;;;;;;;;;1740882;82;21521;-69
2022/08/29 11:12:14;;;;;;;13.03;7.08;;;;;;;;;;1736949;82;21157;-69
2022/08/29 11:14:42;;;;;;;14.55;7.05;;;;;;;;;;1735259;81;22048;-70
2022/08/29 11:17:09;;;;;;;9.40;6.08;;;;;;;;;;1734954;81;21089;-69
2022/08/29 11:19:37;;;;;;;11.05;6.58;;;;;;;;;;1729265;81;20970;-72
2022/08/29 11:22:04;;;;;;;56.92;50.98;;;;;;;;;;1725473;81;21108;-70
2022/08/29 11:24:31;;;;;;;59.65;53.35;;;;;;;;;;1699464;83;21049;-70
2022/08/29 11:26:59;;;;;;;13.90;9.23;;;;;;;;;;1692600;83;21012;-69
2022/08/29 11:29:36;;;;;;;11.97;7.25;;;;;;;;;;1668276;85;21029;-67
2022/08/29 11:32:04;;;;;;;15.15;7.33;;;;;;;;;;1728031;81;21114;-67
2022/08/29 11:34:39;;;;;;;12.93;6.42;;;;;;;;;;1732448;81;21052;-68
2022/08/29 11:37:08;;;;;;;11.33;6.37;;;;;;;;;;1733047;81;21047;-68
2022/08/29 11:39:42;;;;;;;9.05;6.17;;;;;;;;;;1723219;81;21030;-67
2022/08/29 11:42:09;;;;;;;11.48;6.67;;;;;;;;;;1730987;82;21102;-68
2022/08/29 11:44:39;;;;;;;11.40;5.87;;;;;;;;;;1727414;82;21008;-67
2022/08/29 11:47:07;;;;;;;10.20;6.58;;;;;;;;;;1732799;81;21121;-68
2022/08/29 11:49:37;;;;;;;12.28;6.50;;;;;;;;;;1717898;81;21053;-68
2022/08/29 11:52:11;;;;;;;12.25;7.28;;;;;;;;;;1733045;82;20988;-69
2022/08/29 11:54:39;;;;;;;10.40;6.53;;;;;;;;;;1727952;81;21062;-71
2022/08/29 11:57:08;;;;;;;12.30;6.67;;;;;;;;;;1723804;81;21043;-70
2022/08/29 11:59:48;;;;;;;11.30;6.75;;;;;;;;;;1725395;82;21032;-70
2022/08/29 12:02:31;;;;;;;12.50;6.58;;;;;;;;;;1728214;81;22204;-69
2022/08/29 12:05:06;;;;;;;9.70;6.05;;;;;;;;;;1727994;81;21064;-69
2022/08/29 12:07:51;;;;;;;9.30;6.03;;;;;;;;;;1718029;82;21056;-69
2022/08/29 12:10:25;;;;;;;12.35;6.03;;;;;;;;;;1728807;81;21509;-69
2022/08/29 12:12:59;;;;;;;15.13;5.47;;;;;;;;;;1738195;82;21013;-70
2022/08/29 12:15:33;;;;;;;9.63;5.62;;;;;;;;;;1720149;81;21035;-70
2022/08/29 12:18:08;;;;;;;11.75;6.08;;;;;;;;;;1726020;81;21101;-69
2022/08/29 12:20:42;;;;;;;10.78;5.58;;;;;;;;;;1728135;82;21096;-69
2022/08/29 12:23:13;;;;;;;13.62;6.00;;;;;;;;;;1722738;81;21025;-71
2022/08/29 12:25:43;;;;;;;13.23;5.63;;;;;;;;;;1727587;81;21058;-71
2022/08/29 12:28:22;;;;;;;15.30;5.90;;;;;;;;;;1732119;81;21138;-69
2022/08/29 12:30:46;;;;;;;13.53;6.03;;;;;;;;;;1741387;81;21022;-70
2022/08/29 12:33:18;;;;;;;12.70;5.90;;;;;;;;;;1730552;81;21089;-69
2022/08/29 12:36:01;;;;;;;11.03;6.00;;;;;;;;;;1742668;81;21073;-69
2022/08/29 12:38:30;;;;;;;10.72;5.50;;;;;;;;;;1710703;82;21010;-69
2022/08/29 12:41:15;;;;;;;10.88;6.22;;;;;;;;;;1744031;81;21395;-69
2022/08/29 12:43:41;;;;;;;10.53;5.90;;;;;;;;;;1739817;81;20998;-69
2022/08/29 12:46:09;;;;;;;12.07;6.20;;;;;;;;;;1743575;81;20977;-71
2022/08/29 12:48:38;;;;;;;17.92;11.15;;;;;;;;;;1728627;81;21007;-69
2022/08/29 12:51:05;;;;;;;24.72;20.30;;;;;;;;;;1727189;81;20961;-69
2022/08/29 12:53:34;;;;;;;19.30;10.95;;;;;;;;;;1737536;81;21449;-66
2022/08/29 12:56:03;;;;;;;14.07;6.50;;;;;;;;;;1722593;81;21032;-66
2022/08/29 12:58:34;;;;;;;15.13;6.60;;;;;;;;;;1719325;81;21108;-66
2022/08/29 13:01:01;;;;;;;14.28;6.25;;;;;;;;;;1730987;81;21064;-66
2022/08/29 13:03:27;;;;;;;13.68;6.37;;;;;;;;;;1730194;82;21116;-68
2022/08/29 13:05:56;;;;;;;11.25;5.97;;;;;;;;;;1733586;81;21082;-67
2022/08/29 13:08:26;;;;;;;8.83;5.22;;;;;;;;;;1731585;81;21629;-67
2022/08/29 13:10:54;;;;;;;12.05;6.30;;;;;;;;;;1732729;81;21464;-67
2022/08/29 13:13:21;;;;;;;12.33;5.40;;;;;;;;;;1732019;81;21084;-67
2022/08/29 13:15:50;;;;;;;15.70;5.60;;;;;;;;;;1734829;82;22360;-66
2022/08/29 13:18:21;;;;;;;9.58;5.30;;;;;;;;;;1731552;81;21032;-66
2022/08/29 13:20:49;;;;;;;16.48;5.50;;;;;;;;;;1726285;82;21060;-68
2022/08/29 13:23:25;;;;;;;11.93;5.08;;;;;;;;;;1735120;81;21547;-68
2022/08/29 13:25:56;;;;;;;8.05;4.75;;;;;;;;;;1728931;82;21030;-68
2022/08/29 13:28:24;;;;;;;14.28;4.78;;;;;;;;;;1729873;81;21532;-66
2022/08/29 13:31:03;;;;;;;10.75;4.70;;;;;;;;;;1733281;82;21055;-68
2022/08/29 13:33:29;;;;;;;9.90;4.92;;;;;;;;;;1734851;82;21097;-68
2022/08/29 13:35:55;;;;;;;6.75;4.05;;;;;;;;;;1735525;82;20976;-68
2022/08/29 13:38:23;;;;;;;9.30;4.45;;;;;;;;;;1730327;81;21462;-67
2022/08/29 13:40:53;;;;;;;7.80;4.53;;;;;;;;;;1732798;81;21108;-67
2022/08/29 13:43:31;;;;;;;16.62;4.40;;;;;;;;;;1729184;82;21087;-66
2022/08/29 13:46:02;;;;;;;6.67;4.35;;;;;;;;;;1665680;85;21202;-67
2022/08/29 13:48:29;;;;;;;16.07;4.53;;;;;;;;;;1665662;84;21117;-66
2022/08/29 13:50:55;;;;;;;10.95;4.55;;;;;;;;;;1687327;83;21506;-68
2022/08/29 13:53:22;;;;;;;8.40;4.00;;;;;;;;;;1690179;83;21049;-70
2022/08/29 13:55:48;;;;;;;8.55;4.40;;;;;;;;;;1690514;83;21068;-71
2022/08/29 13:58:15;;;;;;;7.90;4.55;;;;;;;;;;1692608;84;21012;-67
2022/08/29 14:00:42;;;;;;;8.78;4.53;;;;;;;;;;1691447;83;21046;-67
2022/08/29 14:03:10;;;;;;;11.50;4.85;;;;;;;;;;1691082;83;21128;-68
2022/08/29 14:05:37;;;;;;;6.85;4.70;;;;;;;;;;1690558;83;21099;-68
2022/08/29 14:08:04;;;;;;;10.55;5.10;;;;;;;;;;1691379;83;20997;-68
2022/08/29 14:10:31;;;;;;;12.58;5.37;;;;;;;;;;1678447;84;21021;-68
2022/08/29 14:12:58;;;;;;;11.93;5.00;;;;;;;;;;1675915;85;21033;-68
2022/08/29 14:15:25;;;;;;;9.50;5.60;;;;;;;;;;1654146;85;21124;-68
2022/08/29 14:17:51;;;;;;;17.98;8.00;;;;;;;;;;1704712;82;21001;-68
2022/08/29 14:20:17;;;;;;;8.93;5.35;;;;;;;;;;1673161;84;21600;-68
2022/08/29 14:22:44;;;;;;;23.18;5.80;;;;;;;;;;1693412;84;21042;-67
2022/08/29 14:25:11;;;;;;;11.88;5.25;;;;;;;;;;1701283;82;21009;-67
2022/08/29 14:27:38;;;;;;;8.98;5.20;;;;;;;;;;1699779;84;21101;-66
2022/08/29 14:30:05;;;;;;;10.75;5.42;;;;;;;;;;1663090;84;21070;-66
2022/08/29 14:32:31;;;;;;;9.28;4.92;;;;;;;;;;1677405;84;21011;-65
2022/08/29 14:34:57;;;;;;;13.10;5.28;;;;;;;;;;1670874;85;21550;-66
2022/08/29 14:37:23;;;;;;;8.45;4.97;;;;;;;;;;1700705;84;21060;-65
2022/08/29 14:39:49;;;;;;;12.55;5.47;;;;;;;;;;1694327;83;21150;-66
2022/08/29 14:42:16;;;;;;;7.60;4.90;;;;;;;;;;1671502;84;20991;-66
2022/08/29 14:44:42;;;;;;;9.73;4.53;;;;;;;;;;1697597;84;21403;-66
2022/08/29 14:47:08;;;;;;;8.90;4.70;;;;;;;;;;1690662;84;21545;-66